createdAt,value
2016-12-05T00:00:30.446Z,0
2016-12-05T00:01:11.210Z,0
2016-12-05T00:01:52.005Z,0
2016-12-05T00:02:32.736Z,0
2016-12-05T00:03:13.528Z,0
2016-12-05T00:03:54.306Z,0
2016-12-05T00:04:35.078Z,0
2016-12-05T00:05:15.831Z,0
2016-12-05T00:05:56.642Z,0
2016-12-05T00:06:37.398Z,0
2016-12-05T00:07:18.134Z,0
2016-12-05T00:07:58.945Z,0
2016-12-05T00:08:39.710Z,0
2016-12-05T00:09:20.484Z,0
2016-12-05T00:10:01.244Z,0
2016-12-05T00:10:42.021Z,0
2016-12-05T00:11:22.756Z,0
2016-12-05T00:12:03.515Z,0
2016-12-05T00:12:44.272Z,0
2016-12-05T00:13:25.021Z,0
2016-12-05T00:14:05.786Z,0
2016-12-05T00:14:46.526Z,0
2016-12-05T00:15:27.299Z,0
2016-12-05T00:16:08.078Z,0
2016-12-05T00:16:48.844Z,0
2016-12-05T00:17:29.622Z,0
2016-12-05T00:18:10.366Z,0
2016-12-05T00:18:51.139Z,0
2016-12-05T00:19:31.862Z,0
2016-12-05T00:20:12.632Z,0
2016-12-05T00:20:53.434Z,0
2016-12-05T00:21:34.185Z,0
2016-12-05T00:22:14.919Z,0
2016-12-05T00:22:55.675Z,0
2016-12-05T00:23:36.448Z,0
2016-12-05T00:24:17.173Z,0
2016-12-05T00:24:57.934Z,0
2016-12-05T00:25:38.743Z,0
2016-12-05T00:26:19.491Z,0
2016-12-05T00:27:00.242Z,0
2016-12-05T00:27:41.033Z,0
2016-12-05T00:28:21.805Z,0
2016-12-05T00:29:02.559Z,0
2016-12-05T00:29:43.332Z,0
2016-12-05T00:30:24.103Z,0
2016-12-05T00:31:04.863Z,0
2016-12-05T00:31:45.646Z,0
2016-12-05T00:32:26.416Z,0
2016-12-05T00:33:07.145Z,0
2016-12-05T00:33:47.948Z,0
2016-12-05T00:34:28.722Z,0
2016-12-05T00:35:09.458Z,0
2016-12-05T00:35:50.309Z,0
2016-12-05T00:36:31.083Z,0
2016-12-05T00:37:11.855Z,0
2016-12-05T00:37:52.627Z,0
2016-12-05T00:38:33.420Z,0
2016-12-05T00:39:14.160Z,0
2016-12-05T00:39:54.995Z,0
2016-12-05T00:40:35.790Z,0
2016-12-05T00:41:16.535Z,0
2016-12-05T00:41:57.307Z,0
2016-12-05T00:42:38.070Z,0
2016-12-05T00:43:18.851Z,0
2016-12-05T00:43:59.605Z,0
2016-12-05T00:44:40.385Z,0
2016-12-05T00:45:21.148Z,0
2016-12-05T00:46:01.896Z,0
2016-12-05T00:46:42.667Z,0
2016-12-05T00:47:23.492Z,0
2016-12-05T00:48:04.240Z,0
2016-12-05T00:48:45.008Z,0
2016-12-05T00:49:25.777Z,0
2016-12-05T00:50:06.543Z,0
2016-12-05T00:50:47.295Z,0
2016-12-05T00:51:28.068Z,0
2016-12-05T00:52:08.857Z,0
2016-12-05T00:52:49.612Z,0
2016-12-05T00:53:30.393Z,0
2016-12-05T00:54:11.153Z,0
2016-12-05T00:54:51.930Z,0
2016-12-05T00:55:32.687Z,0
2016-12-05T00:56:13.480Z,0
2016-12-05T00:56:54.268Z,0
2016-12-05T00:57:35.062Z,0
2016-12-05T00:58:15.818Z,0
2016-12-05T00:58:56.544Z,0
2016-12-05T00:59:37.319Z,0
2016-12-05T01:00:18.072Z,0
2016-12-05T01:00:58.825Z,0
2016-12-05T01:01:39.569Z,0
2016-12-05T01:02:20.358Z,0
2016-12-05T01:03:01.123Z,0
2016-12-05T01:03:41.869Z,0
2016-12-05T01:04:22.659Z,0
2016-12-05T01:05:03.452Z,0
2016-12-05T01:05:44.237Z,0
2016-12-05T01:06:24.996Z,0
2016-12-05T01:07:05.754Z,0
2016-12-05T01:07:46.507Z,0
2016-12-05T01:08:27.271Z,0
2016-12-05T01:09:08.033Z,0
2016-12-05T01:09:48.756Z,0
2016-12-05T01:10:29.526Z,0
2016-12-05T01:11:10.287Z,0
2016-12-05T01:11:51.092Z,0
2016-12-05T01:12:31.908Z,0
2016-12-05T01:13:12.675Z,0
2016-12-05T01:13:53.434Z,0
2016-12-05T01:14:34.204Z,0
2016-12-05T01:15:14.985Z,0
2016-12-05T01:15:55.737Z,0
2016-12-05T01:16:36.503Z,0
2016-12-05T01:17:17.255Z,0
2016-12-05T01:17:58.032Z,0
2016-12-05T01:18:38.768Z,0
2016-12-05T01:19:19.522Z,0
2016-12-05T01:20:00.322Z,0
2016-12-05T01:20:41.068Z,0
2016-12-05T01:21:21.831Z,0
2016-12-05T01:22:02.589Z,0
2016-12-05T01:22:43.348Z,0
2016-12-05T01:23:24.104Z,0
2016-12-05T01:24:04.905Z,0
2016-12-05T01:24:45.646Z,0
2016-12-05T01:25:26.415Z,0
2016-12-05T01:26:07.169Z,0
2016-12-05T01:26:47.897Z,0
2016-12-05T01:27:28.669Z,0
2016-12-05T01:28:09.470Z,0
2016-12-05T01:28:50.228Z,0
2016-12-05T01:29:30.952Z,0
2016-12-05T01:30:11.756Z,0
2016-12-05T01:30:52.513Z,0
2016-12-05T01:31:33.236Z,0
2016-12-05T01:32:14.006Z,0
2016-12-05T01:32:54.773Z,0
2016-12-05T01:33:35.535Z,0
2016-12-05T01:34:16.294Z,0
2016-12-05T01:34:57.069Z,0
2016-12-05T01:35:37.840Z,0
2016-12-05T01:36:18.593Z,0
2016-12-05T01:36:59.373Z,0
2016-12-05T01:37:40.122Z,0
2016-12-05T01:38:20.880Z,0
2016-12-05T01:39:01.649Z,0
2016-12-05T01:39:42.425Z,0
2016-12-05T01:40:23.186Z,0
2016-12-05T01:41:03.937Z,0
2016-12-05T01:41:44.705Z,0
2016-12-05T01:42:25.453Z,0
2016-12-05T01:43:06.219Z,0
2016-12-05T01:43:46.983Z,0
2016-12-05T01:44:27.757Z,0
2016-12-05T01:45:08.508Z,0
2016-12-05T01:45:49.278Z,0
2016-12-05T01:46:30.024Z,0
2016-12-05T01:47:10.773Z,0
2016-12-05T01:47:51.557Z,0
2016-12-05T01:48:32.304Z,0
2016-12-05T01:49:13.062Z,0
2016-12-05T01:49:53.837Z,0
2016-12-05T01:50:34.615Z,0
2016-12-05T01:51:15.356Z,0
2016-12-05T01:51:56.111Z,0
2016-12-05T01:52:36.929Z,0
2016-12-05T01:53:17.667Z,0
2016-12-05T01:53:58.462Z,0
2016-12-05T01:54:39.213Z,0
2016-12-05T01:55:19.982Z,0
2016-12-05T01:56:00.745Z,0
2016-12-05T01:56:41.511Z,0
2016-12-05T01:57:22.263Z,0
2016-12-05T01:58:03.037Z,0
2016-12-05T01:58:43.814Z,0
2016-12-05T01:59:24.587Z,0
2016-12-05T02:00:05.336Z,0
2016-12-05T02:00:46.096Z,0
2016-12-05T02:01:26.871Z,0
2016-12-05T02:02:07.625Z,0
2016-12-05T02:02:48.405Z,0
2016-12-05T02:03:29.168Z,0
2016-12-05T02:04:09.949Z,0
2016-12-05T02:04:50.727Z,0
2016-12-05T02:05:31.498Z,0
2016-12-05T02:06:12.261Z,0
2016-12-05T02:06:53.020Z,0
2016-12-05T02:07:33.804Z,0
2016-12-05T02:08:14.558Z,0
2016-12-05T02:08:55.300Z,0
2016-12-05T02:09:36.106Z,0
2016-12-05T02:10:16.847Z,0
2016-12-05T02:10:57.617Z,0
2016-12-05T02:11:38.405Z,0
2016-12-05T02:12:19.164Z,0
2016-12-05T02:12:59.892Z,0
2016-12-05T02:13:40.656Z,0
2016-12-05T02:14:21.487Z,0
2016-12-05T02:15:02.293Z,0
2016-12-05T02:15:43.038Z,0
2016-12-05T02:16:23.793Z,0
2016-12-05T02:17:04.555Z,0
2016-12-05T02:17:45.339Z,0
2016-12-05T02:18:26.078Z,0
2016-12-05T02:19:06.832Z,0
2016-12-05T02:19:47.602Z,0
2016-12-05T02:20:28.343Z,0
2016-12-05T02:21:09.133Z,0
2016-12-05T02:21:49.901Z,0
2016-12-05T02:22:30.651Z,0
2016-12-05T02:23:11.406Z,0
2016-12-05T02:23:52.168Z,0
2016-12-05T02:24:32.922Z,0
2016-12-05T02:25:13.667Z,0
2016-12-05T02:25:54.472Z,0
2016-12-05T02:26:35.233Z,0
2016-12-05T02:27:15.975Z,0
2016-12-05T02:27:56.741Z,0
2016-12-05T02:28:37.526Z,0
2016-12-05T02:29:18.257Z,0
2016-12-05T02:29:59.028Z,0
2016-12-05T02:30:39.779Z,0
2016-12-05T02:31:20.532Z,0
2016-12-05T02:32:01.300Z,0
2016-12-05T02:32:42.066Z,0
2016-12-05T02:33:22.823Z,0
2016-12-05T02:34:03.573Z,0
2016-12-05T02:34:44.361Z,0
2016-12-05T02:35:25.127Z,0
2016-12-05T02:36:05.853Z,0
2016-12-05T02:36:46.680Z,0
2016-12-05T02:37:27.415Z,0
2016-12-05T02:38:08.181Z,0
2016-12-05T02:38:48.969Z,0
2016-12-05T02:39:29.767Z,0
2016-12-05T02:40:10.530Z,0
2016-12-05T02:40:51.304Z,0
2016-12-05T02:41:32.095Z,0
2016-12-05T02:42:12.864Z,0
2016-12-05T02:42:53.657Z,0
2016-12-05T02:43:34.447Z,0
2016-12-05T02:44:15.225Z,0
2016-12-05T02:44:55.970Z,0
2016-12-05T02:45:36.741Z,0
2016-12-05T02:46:17.482Z,0
2016-12-05T02:46:58.246Z,0
2016-12-05T02:47:39.026Z,0
2016-12-05T02:48:19.787Z,0
2016-12-05T02:49:00.537Z,0
2016-12-05T02:49:41.300Z,0
2016-12-05T02:50:22.075Z,0
2016-12-05T02:51:02.839Z,0
2016-12-05T02:51:43.608Z,0
2016-12-05T02:52:24.367Z,0
2016-12-05T02:53:05.109Z,0
2016-12-05T02:53:45.858Z,0
2016-12-05T02:54:26.618Z,0
2016-12-05T02:55:07.377Z,0
2016-12-05T02:55:48.132Z,0
2016-12-05T02:56:28.888Z,0
2016-12-05T02:57:09.648Z,0
2016-12-05T02:57:50.402Z,0
2016-12-05T02:58:31.192Z,0
2016-12-05T02:59:11.939Z,0
2016-12-05T02:59:52.707Z,0
2016-12-05T03:00:33.477Z,0
2016-12-05T03:01:14.263Z,0
2016-12-05T03:01:55.012Z,0
2016-12-05T03:02:35.789Z,0
2016-12-05T03:03:16.563Z,0
2016-12-05T03:03:57.318Z,0
2016-12-05T03:04:38.140Z,0
2016-12-05T03:05:18.900Z,0
2016-12-05T03:05:59.655Z,0
2016-12-05T03:06:40.433Z,0
2016-12-05T03:07:21.202Z,0
2016-12-05T03:08:01.964Z,0
2016-12-05T03:08:42.747Z,0
2016-12-05T03:09:23.541Z,0
2016-12-05T03:10:04.310Z,0
2016-12-05T03:10:45.059Z,0
2016-12-05T03:11:25.831Z,0
2016-12-05T03:12:06.596Z,0
2016-12-05T03:12:47.337Z,0
2016-12-05T03:13:28.130Z,0
2016-12-05T03:14:08.898Z,0
2016-12-05T03:14:49.631Z,0
2016-12-05T03:15:30.424Z,0
2016-12-05T03:16:11.212Z,0
2016-12-05T03:16:51.987Z,0
2016-12-05T03:17:32.738Z,0
2016-12-05T03:18:13.515Z,0
2016-12-05T03:18:54.261Z,0
2016-12-05T03:19:35.004Z,0
2016-12-05T03:20:15.766Z,0
2016-12-05T03:20:56.527Z,0
2016-12-05T03:21:37.296Z,0
2016-12-05T03:22:18.033Z,0
2016-12-05T03:22:58.835Z,0
2016-12-05T03:23:39.592Z,0
2016-12-05T03:24:20.356Z,0
2016-12-05T03:25:01.115Z,0
2016-12-05T03:25:41.847Z,0
2016-12-05T03:26:22.618Z,0
2016-12-05T03:27:03.369Z,0
2016-12-05T03:27:44.159Z,0
2016-12-05T03:28:24.938Z,0
2016-12-05T03:29:05.692Z,0
2016-12-05T03:29:46.463Z,0
2016-12-05T03:30:27.246Z,0
2016-12-05T03:31:08.011Z,0
2016-12-05T03:31:48.789Z,0
2016-12-05T03:32:29.573Z,0
2016-12-05T03:33:10.396Z,0
2016-12-05T03:33:51.189Z,0
2016-12-05T03:34:31.962Z,0
2016-12-05T03:35:12.731Z,0
2016-12-05T03:35:53.524Z,0
2016-12-05T03:36:34.308Z,0
2016-12-05T03:37:15.102Z,0
2016-12-05T03:37:55.869Z,0
2016-12-05T03:38:36.634Z,0
2016-12-05T03:39:17.427Z,0
2016-12-05T03:39:58.211Z,0
2016-12-05T03:40:38.985Z,0
2016-12-05T03:41:19.752Z,0
2016-12-05T03:42:00.518Z,0
2016-12-05T03:42:41.286Z,0
2016-12-05T03:43:22.067Z,0
2016-12-05T03:44:02.848Z,0
2016-12-05T03:44:43.601Z,0
2016-12-05T03:45:24.390Z,0
2016-12-05T03:46:05.169Z,0
2016-12-05T03:46:45.953Z,0
2016-12-05T03:47:26.723Z,0
2016-12-05T03:48:07.484Z,0
2016-12-05T03:48:48.268Z,0
2016-12-05T03:49:29.022Z,0
2016-12-05T03:50:09.782Z,0
2016-12-05T03:50:50.537Z,0
2016-12-05T03:51:31.315Z,0
2016-12-05T03:52:12.095Z,0
2016-12-05T03:52:52.899Z,0
2016-12-05T03:53:33.699Z,0
2016-12-05T03:54:14.487Z,0
2016-12-05T03:54:55.275Z,0
2016-12-05T03:55:36.035Z,0
2016-12-05T03:56:16.808Z,0
2016-12-05T03:56:57.576Z,0
2016-12-05T03:57:38.340Z,0
2016-12-05T03:58:19.155Z,0
2016-12-05T03:58:59.958Z,0
2016-12-05T03:59:40.772Z,0
2016-12-05T04:00:21.544Z,0
2016-12-05T04:01:02.332Z,0
2016-12-05T04:01:43.098Z,0
2016-12-05T04:02:23.874Z,0
2016-12-05T04:03:04.655Z,0
2016-12-05T04:03:45.432Z,0
2016-12-05T04:04:26.210Z,0
2016-12-05T04:05:06.968Z,0
2016-12-05T04:05:47.757Z,0
2016-12-05T04:06:28.529Z,0
2016-12-05T04:07:09.296Z,0
2016-12-05T04:07:50.073Z,0
2016-12-05T04:08:30.826Z,0
2016-12-05T04:09:11.603Z,0
2016-12-05T04:09:52.400Z,0
2016-12-05T04:10:33.200Z,0
2016-12-05T04:11:13.986Z,0
2016-12-05T04:11:54.774Z,0
2016-12-05T04:12:35.552Z,0
2016-12-05T04:13:16.314Z,0
2016-12-05T04:13:57.099Z,0
2016-12-05T04:14:37.874Z,0
2016-12-05T04:15:18.654Z,0
2016-12-05T04:15:59.435Z,0
2016-12-05T04:16:40.186Z,0
2016-12-05T04:17:20.972Z,0
2016-12-05T04:18:01.749Z,0
2016-12-05T04:18:42.524Z,0
2016-12-05T04:19:23.323Z,0
2016-12-05T04:20:04.093Z,0
2016-12-05T04:20:44.883Z,0
2016-12-05T04:21:25.668Z,0
2016-12-05T04:22:06.409Z,0
2016-12-05T04:22:47.180Z,0
2016-12-05T04:23:27.964Z,0
2016-12-05T04:24:08.718Z,0
2016-12-05T04:24:49.494Z,0
2016-12-05T04:25:30.251Z,0
2016-12-05T04:26:11.064Z,0
2016-12-05T04:26:51.833Z,0
2016-12-05T04:27:32.624Z,0
2016-12-05T04:28:13.395Z,0
2016-12-05T04:28:54.148Z,0
2016-12-05T04:29:34.940Z,0
2016-12-05T04:30:15.682Z,0
2016-12-05T04:30:56.483Z,0
2016-12-05T04:31:37.274Z,0
2016-12-05T04:32:18.043Z,0
2016-12-05T04:32:58.814Z,0
2016-12-05T04:33:39.599Z,0
2016-12-05T04:34:20.435Z,0
2016-12-05T04:35:01.206Z,0
2016-12-05T04:35:41.971Z,0
2016-12-05T04:36:22.735Z,0
2016-12-05T04:37:03.486Z,0
2016-12-05T04:37:44.250Z,0
2016-12-05T04:38:25.048Z,0
2016-12-05T04:39:05.831Z,0
2016-12-05T04:39:46.606Z,0
2016-12-05T04:40:27.378Z,0
2016-12-05T04:41:08.148Z,0
2016-12-05T04:41:48.949Z,0
2016-12-05T04:42:29.711Z,0
2016-12-05T04:43:10.485Z,0
2016-12-05T04:43:51.281Z,0
2016-12-05T04:44:32.073Z,0
2016-12-05T04:45:12.858Z,0
2016-12-05T04:45:53.627Z,0
2016-12-05T04:46:34.379Z,0
2016-12-05T04:47:15.165Z,0
2016-12-05T04:47:55.927Z,0
2016-12-05T04:48:36.739Z,0
2016-12-05T04:49:17.557Z,0
2016-12-05T04:49:58.326Z,0
2016-12-05T04:50:39.085Z,0
2016-12-05T04:51:19.855Z,0
2016-12-05T04:52:00.618Z,0
2016-12-05T04:52:41.392Z,0
2016-12-05T04:53:22.160Z,0
2016-12-05T04:54:02.959Z,0
2016-12-05T04:54:43.750Z,0
2016-12-05T04:55:24.529Z,0
2016-12-05T04:56:05.288Z,0
2016-12-05T04:56:46.055Z,0
2016-12-05T04:57:26.826Z,0
2016-12-05T04:58:07.603Z,0
2016-12-05T04:58:48.348Z,0
2016-12-05T04:59:29.124Z,0
2016-12-05T05:00:09.949Z,0
2016-12-05T05:00:50.712Z,0
2016-12-05T05:01:31.488Z,0
2016-12-05T05:02:12.264Z,0
2016-12-05T05:02:53.031Z,0
2016-12-05T05:03:33.798Z,0
2016-12-05T05:04:14.573Z,0
2016-12-05T05:04:55.365Z,0
2016-12-05T05:05:36.146Z,0
2016-12-05T05:06:16.926Z,0
2016-12-05T05:06:57.713Z,0
2016-12-05T05:07:38.515Z,0
2016-12-05T05:08:19.322Z,0
2016-12-05T05:09:00.106Z,0
2016-12-05T05:09:40.881Z,0
2016-12-05T05:10:21.653Z,0
2016-12-05T05:11:02.404Z,0
2016-12-05T05:11:43.178Z,0
2016-12-05T05:12:23.960Z,0
2016-12-05T05:13:04.754Z,0
2016-12-05T05:13:45.517Z,0
2016-12-05T05:14:26.291Z,0
2016-12-05T05:15:07.065Z,0
2016-12-05T05:15:47.854Z,0
2016-12-05T05:16:28.621Z,0
2016-12-05T05:17:09.384Z,0
2016-12-05T05:17:50.181Z,0
2016-12-05T05:18:30.958Z,0
2016-12-05T05:19:11.728Z,0
2016-12-05T05:19:52.493Z,0
2016-12-05T05:20:33.328Z,0
2016-12-05T05:21:14.078Z,0
2016-12-05T05:21:54.858Z,0
2016-12-05T05:22:35.629Z,0
2016-12-05T05:23:16.405Z,0
2016-12-05T05:23:57.168Z,0
2016-12-05T05:24:37.943Z,0
2016-12-05T05:25:18.722Z,0
2016-12-05T05:25:59.481Z,0
2016-12-05T05:26:40.268Z,0
2016-12-05T05:27:21.017Z,0
2016-12-05T05:28:01.816Z,0
2016-12-05T05:28:42.570Z,0
2016-12-05T05:29:23.340Z,0
2016-12-05T05:30:04.120Z,0
2016-12-05T05:30:44.908Z,0
2016-12-05T05:31:25.690Z,0
2016-12-05T05:32:06.466Z,0
2016-12-05T05:32:47.235Z,0
2016-12-05T05:33:27.995Z,0
2016-12-05T05:34:08.764Z,0
2016-12-05T05:34:49.562Z,0
2016-12-05T05:35:30.328Z,0
2016-12-05T05:36:11.073Z,0
2016-12-05T05:36:51.841Z,0
2016-12-05T05:37:32.633Z,0
2016-12-05T05:38:13.409Z,0
2016-12-05T05:38:54.172Z,0
2016-12-05T05:39:34.968Z,0
2016-12-05T05:40:15.727Z,0
2016-12-05T05:40:56.531Z,0
2016-12-05T05:41:37.299Z,0
2016-12-05T05:42:18.127Z,0
2016-12-05T05:42:58.928Z,0
2016-12-05T05:43:39.755Z,0
2016-12-05T05:44:20.518Z,0
2016-12-05T05:45:01.306Z,0
2016-12-05T05:45:42.066Z,0
2016-12-05T05:46:22.814Z,0
2016-12-05T05:47:03.570Z,0
2016-12-05T05:47:44.336Z,0
2016-12-05T05:48:25.144Z,0
2016-12-05T05:49:05.892Z,0
2016-12-05T05:49:46.693Z,0
2016-12-05T05:50:27.482Z,0
2016-12-05T05:51:08.244Z,0
2016-12-05T05:51:48.990Z,0
2016-12-05T05:52:29.782Z,0
2016-12-05T05:53:10.553Z,0
2016-12-05T05:53:51.340Z,0
2016-12-05T05:54:32.092Z,0
2016-12-05T05:55:12.846Z,0
2016-12-05T05:55:53.631Z,0
2016-12-05T05:56:34.375Z,0
2016-12-05T05:57:15.178Z,0
2016-12-05T05:57:55.946Z,8
2016-12-05T05:58:36.700Z,8
2016-12-05T05:59:17.502Z,16
2016-12-05T05:59:58.284Z,16
2016-12-05T06:00:39.058Z,12
2016-12-05T06:01:19.821Z,12
2016-12-05T06:02:00.600Z,12
2016-12-05T06:02:41.381Z,16
2016-12-05T06:03:22.155Z,16
2016-12-05T06:04:02.935Z,16
2016-12-05T06:04:43.717Z,16
2016-12-05T06:05:24.490Z,16
2016-12-05T06:06:05.241Z,16
2016-12-05T06:06:46.033Z,16
2016-12-05T06:07:26.813Z,16
2016-12-05T06:08:07.591Z,16
2016-12-05T06:08:48.385Z,16
2016-12-05T06:09:29.152Z,16
2016-12-05T06:10:09.961Z,16
2016-12-05T06:10:50.750Z,16
2016-12-05T06:11:31.517Z,16
2016-12-05T06:12:12.277Z,16
2016-12-05T06:12:53.057Z,16
2016-12-05T06:13:33.839Z,16
2016-12-05T06:14:14.603Z,16
2016-12-05T06:14:55.389Z,16
2016-12-05T06:15:36.187Z,16
2016-12-05T06:16:16.947Z,16
2016-12-05T06:16:57.756Z,16
2016-12-05T06:17:38.496Z,16
2016-12-05T06:18:19.267Z,16
2016-12-05T06:19:00.051Z,16
2016-12-05T06:19:40.854Z,16
2016-12-05T06:20:21.641Z,16
2016-12-05T06:21:02.413Z,16
2016-12-05T06:21:43.219Z,16
2016-12-05T06:22:23.968Z,16
2016-12-05T06:23:04.743Z,16
2016-12-05T06:23:45.499Z,16
2016-12-05T06:24:26.293Z,16
2016-12-05T06:25:07.052Z,16
2016-12-05T06:25:47.821Z,16
2016-12-05T06:26:28.598Z,16
2016-12-05T06:27:09.360Z,16
2016-12-05T06:27:50.149Z,16
2016-12-05T06:28:30.926Z,16
2016-12-05T06:29:11.696Z,16
2016-12-05T06:29:52.477Z,16
2016-12-05T06:30:33.293Z,16
2016-12-05T06:31:14.068Z,16
2016-12-05T06:31:54.838Z,16
2016-12-05T06:32:35.625Z,16
2016-12-05T06:33:16.368Z,16
2016-12-05T06:33:57.134Z,16
2016-12-05T06:34:37.928Z,16
2016-12-05T06:35:18.685Z,16
2016-12-05T06:35:59.490Z,16
2016-12-05T06:36:40.266Z,16
2016-12-05T06:37:21.036Z,16
2016-12-05T06:38:01.780Z,16
2016-12-05T06:38:42.610Z,16
2016-12-05T06:39:23.375Z,16
2016-12-05T06:40:04.155Z,16
2016-12-05T06:40:44.950Z,16
2016-12-05T06:41:25.707Z,16
2016-12-05T06:42:06.484Z,16
2016-12-05T06:42:47.266Z,16
2016-12-05T06:43:28.028Z,16
2016-12-05T06:44:08.789Z,16
2016-12-05T06:44:49.577Z,16
2016-12-05T06:45:30.379Z,16
2016-12-05T06:46:11.153Z,16
2016-12-05T06:46:51.964Z,16
2016-12-05T06:47:32.767Z,16
2016-12-05T06:48:13.555Z,16
2016-12-05T06:48:54.328Z,16
2016-12-05T06:49:35.116Z,16
2016-12-05T06:50:15.892Z,16
2016-12-05T06:50:56.658Z,16
2016-12-05T06:51:37.443Z,16
2016-12-05T06:52:18.217Z,16
2016-12-05T06:52:58.998Z,16
2016-12-05T06:53:39.762Z,16
2016-12-05T06:54:20.557Z,16
2016-12-05T06:55:01.327Z,16
2016-12-05T06:55:42.092Z,16
2016-12-05T06:56:22.854Z,16
2016-12-05T06:57:03.627Z,16
2016-12-05T06:57:44.399Z,0
2016-12-05T06:58:25.170Z,0
2016-12-05T06:59:05.950Z,0
2016-12-05T06:59:46.707Z,0
2016-12-05T07:00:27.459Z,0
2016-12-05T07:01:08.240Z,0
2016-12-05T07:01:48.987Z,0
2016-12-05T07:02:29.784Z,0
2016-12-05T07:03:10.542Z,0
2016-12-05T07:03:51.315Z,0
2016-12-05T07:04:32.070Z,0
2016-12-05T07:05:12.838Z,0
2016-12-05T07:05:53.603Z,0
2016-12-05T07:06:34.371Z,0
2016-12-05T07:07:15.162Z,0
2016-12-05T07:07:55.927Z,0
2016-12-05T07:08:36.708Z,0
2016-12-05T07:09:17.468Z,0
2016-12-05T07:09:58.253Z,0
2016-12-05T07:10:39.014Z,0
2016-12-05T07:11:19.808Z,0
2016-12-05T07:12:00.622Z,0
2016-12-05T07:12:41.425Z,0
2016-12-05T07:13:22.185Z,0
2016-12-05T07:14:02.950Z,0
2016-12-05T07:14:43.724Z,0
2016-12-05T07:15:24.476Z,0
2016-12-05T07:16:05.220Z,0
2016-12-05T07:16:46.016Z,0
2016-12-05T07:17:26.815Z,0
2016-12-05T07:18:07.560Z,0
2016-12-05T07:18:48.299Z,0
2016-12-05T07:19:29.085Z,0
2016-12-05T07:20:09.845Z,0
2016-12-05T07:20:50.624Z,0
2016-12-05T07:21:31.447Z,0
2016-12-05T07:22:12.204Z,0
2016-12-05T07:22:52.970Z,0
2016-12-05T07:23:33.790Z,0
2016-12-05T07:24:14.573Z,0
2016-12-05T07:24:55.318Z,0
2016-12-05T07:25:36.077Z,0
2016-12-05T07:26:16.862Z,0
2016-12-05T07:26:57.587Z,4
2016-12-05T07:27:38.363Z,4
2016-12-05T07:28:19.149Z,4
2016-12-05T07:28:59.935Z,4
2016-12-05T07:29:40.705Z,0
2016-12-05T07:30:21.503Z,0
2016-12-05T07:31:02.291Z,0
2016-12-05T07:31:43.085Z,0
2016-12-05T07:32:23.926Z,0
2016-12-05T07:33:04.695Z,4
2016-12-05T07:33:45.491Z,4
2016-12-05T07:34:26.323Z,4
2016-12-05T07:35:07.098Z,4
2016-12-05T07:35:47.925Z,4
2016-12-05T07:36:28.686Z,4
2016-12-05T07:37:09.485Z,4
2016-12-05T07:37:50.219Z,4
2016-12-05T07:38:31.033Z,4
2016-12-05T07:39:11.802Z,0
2016-12-05T07:39:52.556Z,0
2016-12-05T07:40:33.321Z,0
2016-12-05T07:41:14.099Z,0
2016-12-05T07:41:54.871Z,0
2016-12-05T07:42:35.619Z,4
2016-12-05T07:43:16.447Z,4
2016-12-05T07:43:57.199Z,4
2016-12-05T07:44:37.950Z,4
2016-12-05T07:45:18.761Z,0
2016-12-05T07:45:59.522Z,4
2016-12-05T07:46:40.294Z,4
2016-12-05T07:47:21.096Z,4
2016-12-05T07:48:01.860Z,4
2016-12-05T07:48:42.593Z,4
2016-12-05T07:49:23.355Z,4
2016-12-05T07:50:04.171Z,352
2016-12-05T07:50:44.959Z,528
2016-12-05T07:51:25.743Z,628
2016-12-05T07:52:06.563Z,660
2016-12-05T07:52:47.367Z,672
2016-12-05T07:53:28.159Z,684
2016-12-05T07:54:08.959Z,692
2016-12-05T07:54:49.722Z,696
2016-12-05T07:55:30.504Z,700
2016-12-05T07:56:11.335Z,700
2016-12-05T07:56:52.158Z,700
2016-12-05T07:57:32.955Z,700
2016-12-05T07:58:13.728Z,696
2016-12-05T07:58:54.543Z,696
2016-12-05T07:59:35.345Z,700
2016-12-05T08:00:16.159Z,700
2016-12-05T08:00:56.982Z,700
2016-12-05T08:01:37.736Z,700
2016-12-05T08:02:18.537Z,700
2016-12-05T08:02:59.415Z,700
2016-12-05T08:03:40.195Z,700
2016-12-05T08:04:20.990Z,700
2016-12-05T08:05:01.764Z,700
2016-12-05T08:05:42.517Z,696
2016-12-05T08:06:23.285Z,696
2016-12-05T08:07:04.095Z,696
2016-12-05T08:07:44.924Z,696
2016-12-05T08:08:25.782Z,696
2016-12-05T08:09:06.561Z,696
2016-12-05T08:09:47.356Z,696
2016-12-05T08:10:28.132Z,696
2016-12-05T08:11:08.959Z,700
2016-12-05T08:11:49.717Z,700
2016-12-05T08:12:30.519Z,696
2016-12-05T08:13:11.275Z,696
2016-12-05T08:13:52.074Z,696
2016-12-05T08:14:32.879Z,700
2016-12-05T08:15:13.707Z,696
2016-12-05T08:15:54.512Z,696
2016-12-05T08:16:35.297Z,700
2016-12-05T08:17:16.056Z,688
2016-12-05T08:17:56.831Z,688
2016-12-05T08:18:37.592Z,648
2016-12-05T08:19:18.354Z,696
2016-12-05T08:19:59.120Z,700
2016-12-05T08:20:39.895Z,704
2016-12-05T08:21:20.675Z,700
2016-12-05T08:22:01.434Z,700
2016-12-05T08:22:42.204Z,704
2016-12-05T08:23:22.958Z,704
2016-12-05T08:24:03.769Z,704
2016-12-05T08:24:44.590Z,704
2016-12-05T08:25:25.366Z,700
2016-12-05T08:26:06.134Z,700
2016-12-05T08:26:46.943Z,700
2016-12-05T08:27:27.735Z,700
2016-12-05T08:28:08.521Z,700
2016-12-05T08:28:49.388Z,700
2016-12-05T08:29:30.161Z,704
2016-12-05T08:30:10.932Z,704
2016-12-05T08:30:51.722Z,700
2016-12-05T08:31:32.562Z,700
2016-12-05T08:32:13.443Z,700
2016-12-05T08:32:54.217Z,704
2016-12-05T08:33:34.988Z,704
2016-12-05T08:34:15.783Z,708
2016-12-05T08:34:56.589Z,704
2016-12-05T08:35:37.351Z,708
2016-12-05T08:36:18.128Z,700
2016-12-05T08:36:58.925Z,708
2016-12-05T08:37:39.745Z,712
2016-12-05T08:38:20.500Z,708
2016-12-05T08:39:01.275Z,712
2016-12-05T08:39:42.097Z,712
2016-12-05T08:40:22.892Z,712
2016-12-05T08:41:03.822Z,712
2016-12-05T08:41:44.684Z,712
2016-12-05T08:42:25.441Z,712
2016-12-05T08:43:06.231Z,712
2016-12-05T08:43:47.013Z,712
2016-12-05T08:44:27.786Z,716
2016-12-05T08:45:08.554Z,708
2016-12-05T08:45:49.362Z,712
2016-12-05T08:46:30.232Z,712
2016-12-05T08:47:11.013Z,712
2016-12-05T08:47:51.774Z,712
2016-12-05T08:48:32.557Z,712
2016-12-05T08:49:13.309Z,712
2016-12-05T08:49:54.162Z,712
2016-12-05T08:50:34.954Z,692
2016-12-05T08:51:15.752Z,704
2016-12-05T08:51:56.479Z,700
2016-12-05T08:52:37.248Z,700
2016-12-05T08:53:18.004Z,672
2016-12-05T08:53:58.801Z,704
2016-12-05T08:54:39.576Z,712
2016-12-05T08:55:20.336Z,708
2016-12-05T08:56:01.137Z,712
2016-12-05T08:56:41.972Z,712
2016-12-05T08:57:22.764Z,712
2016-12-05T08:58:03.587Z,712
2016-12-05T08:58:44.365Z,712
2016-12-05T08:59:25.141Z,712
2016-12-05T09:00:05.961Z,712
2016-12-05T09:00:46.731Z,712
2016-12-05T09:01:27.536Z,712
2016-12-05T09:02:08.328Z,716
2016-12-05T09:02:49.175Z,716
2016-12-05T09:03:29.976Z,716
2016-12-05T09:04:10.838Z,716
2016-12-05T09:04:51.581Z,716
2016-12-05T09:05:32.386Z,716
2016-12-05T09:06:13.139Z,716
2016-12-05T09:06:53.916Z,720
2016-12-05T09:07:34.716Z,716
2016-12-05T09:08:15.552Z,720
2016-12-05T09:08:56.308Z,720
2016-12-05T09:09:37.083Z,720
2016-12-05T09:10:17.937Z,720
2016-12-05T09:10:58.674Z,720
2016-12-05T09:11:39.435Z,720
2016-12-05T09:12:20.194Z,716
2016-12-05T09:13:00.963Z,716
2016-12-05T09:13:41.778Z,716
2016-12-05T09:14:22.566Z,716
2016-12-05T09:15:03.319Z,712
2016-12-05T09:15:44.107Z,712
2016-12-05T09:16:24.860Z,708
2016-12-05T09:17:05.659Z,712
2016-12-05T09:17:46.489Z,708
2016-12-05T09:18:27.328Z,712
2016-12-05T09:19:08.067Z,708
2016-12-05T09:19:48.923Z,712
2016-12-05T09:20:29.709Z,708
2016-12-05T09:21:10.502Z,708
2016-12-05T09:21:51.334Z,712
2016-12-05T09:22:32.163Z,712
2016-12-05T09:23:12.936Z,712
2016-12-05T09:23:53.677Z,716
2016-12-05T09:24:34.472Z,716
2016-12-05T09:25:15.274Z,712
2016-12-05T09:25:56.060Z,716
2016-12-05T09:26:36.884Z,716
2016-12-05T09:27:17.675Z,716
2016-12-05T09:27:58.433Z,716
2016-12-05T09:28:39.230Z,716
2016-12-05T09:29:20.031Z,712
2016-12-05T09:30:00.769Z,712
2016-12-05T09:30:41.571Z,712
2016-12-05T09:31:22.343Z,708
2016-12-05T09:32:03.112Z,708
2016-12-05T09:32:43.898Z,716
2016-12-05T09:33:24.671Z,712
2016-12-05T09:34:05.442Z,716
2016-12-05T09:34:46.213Z,712
2016-12-05T09:35:26.979Z,716
2016-12-05T09:36:07.749Z,716
2016-12-05T09:36:48.512Z,716
2016-12-05T09:37:29.300Z,716
2016-12-05T09:38:10.059Z,716
2016-12-05T09:38:50.831Z,716
2016-12-05T09:39:31.624Z,716
2016-12-05T09:40:12.402Z,720
2016-12-05T09:40:53.198Z,708
2016-12-05T09:41:33.955Z,716
2016-12-05T09:42:14.715Z,716
2016-12-05T09:42:55.490Z,720
2016-12-05T09:43:36.256Z,716
2016-12-05T09:44:17.015Z,716
2016-12-05T09:44:57.793Z,716
2016-12-05T09:45:38.556Z,716
2016-12-05T09:46:19.336Z,716
2016-12-05T09:47:00.080Z,720
2016-12-05T09:47:40.883Z,720
2016-12-05T09:48:21.655Z,720
2016-12-05T09:49:02.388Z,720
2016-12-05T09:49:43.162Z,720
2016-12-05T09:50:23.953Z,720
2016-12-05T09:51:04.739Z,720
2016-12-05T09:51:45.482Z,724